createdAt,value
2016-07-31T00:00:51.440Z,23.35
2016-07-31T00:01:51.467Z,23.36
2016-07-31T00:02:51.491Z,23.38
2016-07-31T00:03:51.519Z,23.39
2016-07-31T00:04:51.545Z,23.38
2016-07-31T00:05:51.571Z,23.35
2016-07-31T00:06:51.595Z,23.36
2016-07-31T00:07:51.621Z,23.36
2016-07-31T00:08:51.650Z,23.4
2016-07-31T00:09:51.680Z,23.33
2016-07-31T00:10:51.700Z,23.39
2016-07-31T00:11:51.724Z,23.4
2016-07-31T00:13:51.781Z,23.38
2016-07-31T00:14:51.803Z,23.28
2016-07-31T00:15:51.834Z,23.36
2016-07-31T00:16:51.859Z,23.4
2016-07-31T00:17:51.882Z,23.33
2016-07-31T00:18:51.910Z,23.39
2016-07-31T00:20:51.961Z,23.23
2016-07-31T00:21:51.991Z,23.33
2016-07-31T00:22:52.014Z,23.22
2016-07-31T00:23:52.043Z,23.25
2016-07-31T00:24:52.065Z,23.28
2016-07-31T00:25:52.096Z,23.4
2016-07-31T00:26:52.118Z,23.22
2016-07-31T00:28:52.172Z,23.27
2016-07-31T00:29:52.196Z,23.28
2016-07-31T00:30:52.241Z,23.27
2016-07-31T00:31:52.251Z,23.19
2016-07-31T00:32:52.281Z,23.25
2016-07-31T00:33:52.301Z,23.27
2016-07-31T00:34:52.327Z,23.22
2016-07-31T00:35:52.361Z,23.25
2016-07-31T00:36:52.384Z,23.23
2016-07-31T00:37:52.406Z,23.25
2016-07-31T00:38:52.430Z,23.25
2016-07-31T00:39:52.459Z,23.27
2016-07-31T00:40:52.538Z,23.22
2016-07-31T00:41:52.514Z,23.35
2016-07-31T00:43:52.570Z,23.22
2016-07-31T00:44:52.586Z,23.27
2016-07-31T00:45:52.617Z,23.23
2016-07-31T00:46:52.642Z,23.19
2016-07-31T00:47:52.664Z,23.16
2016-07-31T00:48:52.692Z,23.17
2016-07-31T00:49:52.720Z,23.19
2016-07-31T00:50:52.742Z,23.13
2016-07-31T00:51:52.771Z,23.19
2016-07-31T00:52:52.797Z,23.25
2016-07-31T00:53:52.827Z,23.15
2016-07-31T00:54:52.845Z,23.25
2016-07-31T00:55:52.876Z,23.25
2016-07-31T00:56:52.900Z,23.2
2016-07-31T00:57:52.928Z,23.17
2016-07-31T00:58:52.951Z,23.22
2016-07-31T00:59:52.978Z,23.1
2016-07-31T01:00:53.002Z,23.15
2016-07-31T01:01:53.034Z,23.16
2016-07-31T01:02:53.055Z,23.23
2016-07-31T01:03:53.083Z,23.16
2016-07-31T01:04:53.110Z,23.17
2016-07-31T01:05:53.132Z,23.22
2016-07-31T01:06:53.160Z,23.19
2016-07-31T01:07:53.190Z,23.2
2016-07-31T01:08:53.209Z,23.2
2016-07-31T01:09:53.238Z,23.16
2016-07-31T01:10:53.264Z,23.13
2016-07-31T01:11:53.295Z,23.2
2016-07-31T01:12:53.314Z,23.1
2016-07-31T01:13:53.350Z,23.17
2016-07-31T01:14:53.365Z,23.15
2016-07-31T01:15:53.392Z,23.15
2016-07-31T01:16:53.417Z,23.2
2016-07-31T01:17:53.456Z,23.19
2016-07-31T01:18:53.474Z,23.12
2016-07-31T01:19:53.499Z,23.17
2016-07-31T01:20:53.524Z,23.2
2016-07-31T01:21:53.557Z,23.25
2016-07-31T01:22:53.572Z,23.25
2016-07-31T01:23:53.602Z,23.23
2016-07-31T01:24:53.628Z,23.2
2016-07-31T01:25:53.660Z,23.16
2016-07-31T01:26:53.680Z,23.17
2016-07-31T01:27:53.705Z,23.25
2016-07-31T01:28:53.732Z,23.25
2016-07-31T01:29:53.762Z,23.23
2016-07-31T01:30:53.784Z,23.2
2016-07-31T01:31:53.808Z,23.2
2016-07-31T01:32:53.834Z,23.22
2016-07-31T01:33:53.862Z,23.23
2016-07-31T01:34:53.883Z,23.22
2016-07-31T01:35:53.918Z,23.25
2016-07-31T01:36:53.939Z,23.2
2016-07-31T01:37:53.964Z,23.22
2016-07-31T01:38:53.991Z,23.27
2016-07-31T01:39:54.017Z,23.27
2016-07-31T01:40:54.094Z,23.23
2016-07-31T01:41:54.068Z,23.22
2016-07-31T01:42:54.095Z,23.2
2016-07-31T01:43:54.122Z,23.27
2016-07-31T01:44:54.145Z,23.25
2016-07-31T01:45:54.187Z,23.27
2016-07-31T01:46:54.197Z,23.25
2016-07-31T01:47:54.226Z,23.25
2016-07-31T01:48:54.261Z,23.22
2016-07-31T01:49:54.288Z,23.28
2016-07-31T01:50:54.304Z,23.27
2016-07-31T01:51:55.025Z,23.22
2016-07-31T01:52:54.365Z,23.25
2016-07-31T01:53:54.381Z,23.25
2016-07-31T01:54:54.407Z,23.22
2016-07-31T01:55:55.136Z,23.25
2016-07-31T01:56:54.459Z,23.23
2016-07-31T01:57:54.489Z,23.23
2016-07-31T01:58:54.509Z,23.23
2016-07-31T01:59:54.536Z,23.16
2016-07-31T02:00:54.564Z,23.13
2016-07-31T02:01:54.590Z,23.1
2016-07-31T02:02:54.614Z,23.19
2016-07-31T02:03:54.640Z,23.17
2016-07-31T02:04:54.666Z,23.23
2016-07-31T02:05:54.693Z,23.2
2016-07-31T02:06:54.716Z,23.15
2016-07-31T02:07:54.746Z,23.25
2016-07-31T02:08:54.776Z,23.17
2016-07-31T02:09:54.797Z,23.13
2016-07-31T02:10:54.824Z,23.19
2016-07-31T02:11:54.854Z,23.25
2016-07-31T02:12:54.872Z,23.22
2016-07-31T02:13:54.901Z,23.19
2016-07-31T02:14:54.935Z,23.19
2016-07-31T02:15:54.950Z,23.27
2016-07-31T02:16:54.990Z,23.23
2016-07-31T02:17:55.005Z,23.15
2016-07-31T02:18:55.029Z,23.2
2016-07-31T02:19:55.057Z,23.32
2016-07-31T02:20:55.081Z,23.27
2016-07-31T02:21:55.109Z,23.17
2016-07-31T02:22:55.130Z,23.15
2016-07-31T02:23:55.169Z,23.25
2016-07-31T02:24:55.184Z,23.22
2016-07-31T02:25:55.211Z,23.23
2016-07-31T02:26:55.246Z,23.16
2016-07-31T02:27:55.262Z,23.16
2016-07-31T02:28:55.291Z,23.17
2016-07-31T02:29:55.314Z,23.16
2016-07-31T02:30:55.339Z,23.15
2016-07-31T02:31:55.369Z,23.17
2016-07-31T02:32:55.392Z,23.15
2016-07-31T02:33:55.418Z,23.12
2016-07-31T02:34:55.442Z,23.22
2016-07-31T02:35:55.477Z,23.16
2016-07-31T02:36:55.501Z,23.22
2016-07-31T02:37:55.521Z,23.2
2016-07-31T02:38:55.549Z,23.16
2016-07-31T02:39:55.584Z,23.15
2016-07-31T02:40:55.605Z,23.15
2016-07-31T02:41:55.624Z,23.2
2016-07-31T02:42:55.652Z,23.17
2016-07-31T02:43:55.677Z,23.2
2016-07-31T02:44:55.704Z,23.15
2016-07-31T02:45:55.726Z,23.12
2016-07-31T02:46:55.753Z,23.1
2016-07-31T02:47:55.786Z,23.17
2016-07-31T02:48:55.807Z,23.16
2016-07-31T02:49:55.830Z,23.12
2016-07-31T02:50:55.860Z,23.15
2016-07-31T02:51:55.887Z,23.15
2016-07-31T02:52:55.909Z,23.13
2016-07-31T02:53:56.649Z,23.19
2016-07-31T02:54:55.972Z,23.2
2016-07-31T02:55:55.990Z,23.19
2016-07-31T02:56:56.016Z,23.1
2016-07-31T02:57:56.042Z,23.19
2016-07-31T02:58:56.064Z,23.12
2016-07-31T02:59:56.092Z,23.16
2016-07-31T03:00:56.126Z,23.16
2016-07-31T03:01:56.143Z,23.1
2016-07-31T03:02:56.173Z,23.13
2016-07-31T03:03:56.195Z,23.13
2016-07-31T03:04:56.221Z,23.19
2016-07-31T03:05:56.247Z,23.19
2016-07-31T03:06:56.274Z,23.12
2016-07-31T03:07:56.301Z,23.17
2016-07-31T03:08:56.329Z,23.05
2016-07-31T03:09:57.052Z,23.16
2016-07-31T03:10:56.383Z,23.19
2016-07-31T03:11:56.407Z,23.19
2016-07-31T03:12:56.428Z,23.16
2016-07-31T03:13:56.455Z,23.05
2016-07-31T03:14:56.478Z,23.16
2016-07-31T03:15:56.510Z,23.04
2016-07-31T03:16:56.540Z,23.2
2016-07-31T03:17:56.562Z,23.23
2016-07-31T03:18:56.589Z,23.19
2016-07-31T03:19:56.616Z,23.19
2016-07-31T03:20:56.634Z,23.13
2016-07-31T03:21:56.669Z,23.1
2016-07-31T03:22:56.688Z,23.13
2016-07-31T03:23:57.419Z,23.12
2016-07-31T03:24:56.738Z,23.09
2016-07-31T03:25:56.768Z,23.15
2016-07-31T03:26:57.490Z,23.17
2016-07-31T03:27:56.817Z,23.16
2016-07-31T03:28:56.856Z,23.16
2016-07-31T03:29:56.871Z,23.17
2016-07-31T03:30:56.894Z,23.16
2016-07-31T03:31:56.922Z,23.12
2016-07-31T03:32:56.947Z,23.19
2016-07-31T03:33:56.972Z,23.15
2016-07-31T03:34:57.001Z,23.1
2016-07-31T03:35:57.024Z,23.16
2016-07-31T03:36:57.061Z,23.04
2016-07-31T03:37:57.077Z,23.09
2016-07-31T03:38:57.108Z,23.1
2016-07-31T03:39:57.126Z,23.16
2016-07-31T03:40:57.152Z,23.17
2016-07-31T03:41:57.186Z,23.17
2016-07-31T03:42:57.205Z,23.17
2016-07-31T03:43:57.231Z,23.15
2016-07-31T03:44:57.259Z,23.1
2016-07-31T03:45:57.285Z,23.09
2016-07-31T03:46:57.311Z,23.13
2016-07-31T03:47:57.338Z,23.09
2016-07-31T03:48:57.361Z,23.12
2016-07-31T03:49:57.388Z,23.15
2016-07-31T03:50:57.413Z,23.15
2016-07-31T03:51:57.444Z,23.17
2016-07-31T03:52:57.466Z,23.15
2016-07-31T03:53:57.498Z,23.16
2016-07-31T03:54:57.515Z,23.16
2016-07-31T03:55:57.544Z,22.98
2016-07-31T03:56:57.575Z,23.04
2016-07-31T03:57:57.595Z,23.12
2016-07-31T03:58:57.626Z,23.16
2016-07-31T03:59:57.649Z,23.13
2016-07-31T04:00:57.670Z,23.17
2016-07-31T04:01:57.704Z,23.19
2016-07-31T04:02:57.724Z,23.12
2016-07-31T04:03:57.753Z,23.12
2016-07-31T04:04:57.776Z,23.15
2016-07-31T04:05:57.800Z,23.16
2016-07-31T04:06:57.828Z,23.2
2016-07-31T04:07:57.855Z,23.19
2016-07-31T04:08:57.878Z,23.1
2016-07-31T04:09:57.911Z,23.05
2016-07-31T04:10:57.933Z,23.1
2016-07-31T04:11:57.958Z,23.15
2016-07-31T04:12:57.984Z,23.05
2016-07-31T04:13:58.007Z,23.02
2016-07-31T04:14:58.038Z,23.1
2016-07-31T04:15:58.062Z,23.13
2016-07-31T04:16:58.084Z,23.19
2016-07-31T04:17:58.117Z,23.16
2016-07-31T04:18:58.139Z,23.07
2016-07-31T04:19:58.162Z,23.07
2016-07-31T04:20:58.191Z,23.04
2016-07-31T04:21:58.218Z,23.22
2016-07-31T04:22:58.242Z,23.17
2016-07-31T04:23:58.268Z,23.16
2016-07-31T04:24:58.292Z,23.15
2016-07-31T04:25:58.320Z,23.17
2016-07-31T04:26:59.048Z,23.09
2016-07-31T04:27:58.370Z,23.16
2016-07-31T04:28:58.397Z,23.13
2016-07-31T04:29:58.423Z,23.15
2016-07-31T04:30:58.450Z,23.13
2016-07-31T04:31:58.473Z,23.09
2016-07-31T04:32:58.502Z,23.09
2016-07-31T04:33:58.527Z,23.1
2016-07-31T04:34:58.551Z,23.09
2016-07-31T04:35:58.578Z,23.12
2016-07-31T04:36:58.604Z,23.22
2016-07-31T04:37:58.636Z,23.13
2016-07-31T04:38:58.657Z,23.16
2016-07-31T04:39:59.384Z,23.19
2016-07-31T04:40:58.709Z,23.16
2016-07-31T04:41:58.733Z,23.19
2016-07-31T04:42:58.757Z,23.15
2016-07-31T04:43:58.791Z,23.15
2016-07-31T04:44:58.810Z,23.1
2016-07-31T04:45:58.840Z,23.19
2016-07-31T04:46:58.862Z,23.09
2016-07-31T04:47:58.894Z,23.2
2016-07-31T04:48:58.910Z,23.19
2016-07-31T04:49:58.941Z,23.19
2016-07-31T04:50:58.967Z,23.17
2016-07-31T04:51:58.997Z,23.13
2016-07-31T04:52:59.017Z,23.22
2016-07-31T04:53:59.043Z,23.17
2016-07-31T04:54:59.070Z,23.12
2016-07-31T04:55:59.096Z,23.16
2016-07-31T04:56:59.122Z,23.12
2016-07-31T04:57:59.159Z,23.17
2016-07-31T04:58:59.171Z,23.19
2016-07-31T04:59:59.900Z,23.16
2016-07-31T05:00:59.226Z,23.09
2016-07-31T05:01:59.261Z,23.17
2016-07-31T05:02:59.278Z,23.16
2016-07-31T05:03:59.305Z,23.17
2016-07-31T05:04:59.326Z,23.17
2016-07-31T05:05:59.354Z,23.13
2016-07-31T05:06:59.380Z,23.15
2016-07-31T05:07:59.403Z,23.15
2016-07-31T05:08:59.429Z,23.16
2016-07-31T05:09:59.457Z,23.13
2016-07-31T05:10:59.488Z,23.22
2016-07-31T05:12:00.226Z,23.23
2016-07-31T05:12:59.534Z,23.17
2016-07-31T05:14:59.586Z,23.2
2016-07-31T05:15:59.611Z,23.1
2016-07-31T05:16:59.636Z,23.23
2016-07-31T05:17:59.668Z,23.2
2016-07-31T05:18:59.688Z,23.27
2016-07-31T05:19:59.716Z,23.25
2016-07-31T05:20:59.741Z,23.25
2016-07-31T05:21:59.769Z,23.17
2016-07-31T05:22:59.791Z,23.23
2016-07-31T05:23:59.819Z,23.13
2016-07-31T05:24:59.845Z,23.23
2016-07-31T05:25:59.868Z,23.22
2016-07-31T05:26:59.897Z,23.27
2016-07-31T05:27:59.931Z,23.22
2016-07-31T05:29:59.979Z,23.22
2016-07-31T05:30:59.997Z,23.28
2016-07-31T05:32:00.030Z,23.25
2016-07-31T05:33:00.062Z,23.17
2016-07-31T05:34:00.074Z,23.2
2016-07-31T05:35:00.103Z,23.23
2016-07-31T05:36:00.132Z,23.33
2016-07-31T05:37:00.157Z,23.28
2016-07-31T05:38:00.190Z,23.38
2016-07-31T05:39:00.209Z,23.32
2016-07-31T05:40:00.239Z,23.25
2016-07-31T05:41:00.461Z,23.36
2016-07-31T05:42:00.286Z,23.43
2016-07-31T05:43:00.312Z,23.39
2016-07-31T05:44:00.339Z,23.33
2016-07-31T05:45:00.364Z,23.22
2016-07-31T05:46:00.392Z,23.25
2016-07-31T05:47:00.423Z,23.38
2016-07-31T05:48:00.441Z,23.4
2016-07-31T05:49:00.468Z,23.35
2016-07-31T05:50:00.497Z,23.4
2016-07-31T05:51:00.516Z,23.48
2016-07-31T05:52:01.242Z,23.51
2016-07-31T05:53:00.571Z,23.48
2016-07-31T05:54:00.597Z,23.5
2016-07-31T05:55:00.622Z,23.53
2016-07-31T05:56:00.651Z,23.51
2016-07-31T05:57:00.674Z,23.5
2016-07-31T05:58:00.701Z,23.51
2016-07-31T05:59:00.727Z,23.46
2016-07-31T06:00:00.759Z,23.55
2016-07-31T06:01:00.784Z,23.48
2016-07-31T06:02:00.807Z,23.5
2016-07-31T06:03:00.840Z,23.53
2016-07-31T06:04:00.854Z,23.55
2016-07-31T06:05:00.882Z,23.58
2016-07-31T06:06:00.914Z,23.61
2016-07-31T06:07:00.934Z,23.58
2016-07-31T06:08:00.962Z,23.55
2016-07-31T06:09:00.990Z,23.55
2016-07-31T06:10:01.013Z,23.58
2016-07-31T06:11:01.039Z,23.72
2016-07-31T06:12:01.063Z,23.55
2016-07-31T06:13:01.089Z,23.57
2016-07-31T06:14:01.118Z,23.69
2016-07-31T06:15:01.141Z,23.7
2016-07-31T06:16:01.171Z,23.78
2016-07-31T06:17:01.196Z,23.7
2016-07-31T06:18:01.222Z,23.79
2016-07-31T06:19:01.246Z,23.83
2016-07-31T06:20:01.273Z,23.73
2016-07-31T06:21:01.300Z,23.78
2016-07-31T06:22:01.328Z,23.72
2016-07-31T06:23:01.353Z,23.79
2016-07-31T06:24:01.387Z,23.73
2016-07-31T06:25:01.402Z,23.84
2016-07-31T06:26:01.437Z,23.93
2016-07-31T06:27:01.465Z,23.84
2016-07-31T06:28:01.486Z,23.83
2016-07-31T06:29:01.511Z,23.78
2016-07-31T06:30:01.537Z,23.87
2016-07-31T06:31:01.565Z,23.83
2016-07-31T06:32:01.591Z,23.87
2016-07-31T06:33:02.324Z,23.83
2016-07-31T06:34:01.641Z,23.79
2016-07-31T06:35:01.666Z,23.84
2016-07-31T06:36:01.699Z,23.85
2016-07-31T06:37:01.717Z,23.88
2016-07-31T06:38:01.745Z,23.85
2016-07-31T06:39:01.771Z,23.76
2016-07-31T06:40:01.797Z,23.76
2016-07-31T06:41:01.893Z,23.85
2016-07-31T06:42:01.854Z,23.88
2016-07-31T06:43:01.875Z,24
2016-07-31T06:44:02.606Z,23.91
2016-07-31T06:45:01.930Z,23.95
2016-07-31T06:46:01.959Z,23.95
2016-07-31T06:47:01.982Z,24.06
2016-07-31T06:48:02.006Z,23.97
2016-07-31T06:49:02.036Z,23.98
2016-07-31T06:50:02.060Z,24.03
2016-07-31T06:51:02.089Z,24.08
2016-07-31T06:52:02.116Z,24.08
2016-07-31T06:53:02.141Z,24.08
2016-07-31T06:54:02.165Z,24.12
2016-07-31T06:55:02.194Z,24.09
2016-07-31T06:56:02.222Z,24.1
2016-07-31T06:57:02.243Z,24.1
2016-07-31T06:58:02.274Z,24.18
2016-07-31T06:59:02.298Z,24.13
2016-07-31T07:00:02.324Z,24.15
2016-07-31T07:01:02.352Z,24.2
2016-07-31T07:02:02.377Z,24.2
2016-07-31T07:03:02.404Z,24.22
2016-07-31T07:04:02.430Z,24.28
2016-07-31T07:05:02.461Z,24.27
2016-07-31T07:06:02.486Z,24.35
2016-07-31T07:07:02.510Z,24.27
2016-07-31T07:08:02.537Z,24.3
2016-07-31T07:09:02.565Z,24.42
2016-07-31T07:10:02.591Z,24.39
2016-07-31T07:11:02.618Z,24.37
2016-07-31T07:12:02.649Z,24.37
2016-07-31T07:13:02.681Z,24.34
2016-07-31T07:14:02.698Z,24.46
2016-07-31T07:15:02.725Z,24.47
2016-07-31T07:16:02.751Z,24.49
2016-07-31T07:17:02.778Z,24.5
2016-07-31T07:18:02.804Z,24.47
2016-07-31T07:19:02.828Z,24.58
2016-07-31T07:20:02.862Z,24.64
2016-07-31T07:21:02.885Z,24.62
2016-07-31T07:22:02.909Z,24.53
2016-07-31T07:23:02.942Z,24.47
2016-07-31T07:24:02.966Z,24.53
2016-07-31T07:25:02.990Z,24.47
2016-07-31T07:26:03.019Z,24.57
2016-07-31T07:27:03.046Z,24.53
2016-07-31T07:28:03.071Z,24.6
2016-07-31T07:29:03.098Z,24.53
2016-07-31T07:30:03.127Z,24.55
2016-07-31T07:31:03.150Z,24.57
2016-07-31T07:32:03.182Z,24.52
2016-07-31T07:33:03.205Z,24.52
2016-07-31T07:34:03.230Z,24.46
2016-07-31T07:35:03.260Z,24.47
2016-07-31T07:36:03.288Z,24.45
2016-07-31T07:37:03.315Z,24.5
2016-07-31T07:38:03.342Z,24.49
2016-07-31T07:39:03.369Z,24.37
2016-07-31T07:40:03.396Z,24.49
2016-07-31T07:41:03.632Z,24.37
2016-07-31T07:42:03.450Z,24.4
2016-07-31T07:43:03.478Z,24.4
2016-07-31T07:44:03.505Z,24.42
2016-07-31T07:45:03.528Z,24.3
2016-07-31T07:46:03.559Z,24.31
2016-07-31T07:47:04.282Z,24.4
2016-07-31T07:48:03.610Z,24.39
2016-07-31T07:49:03.641Z,24.39
2016-07-31T07:50:03.667Z,24.34
2016-07-31T07:51:03.691Z,24.4
2016-07-31T07:52:03.717Z,24.42
2016-07-31T07:53:03.747Z,24.45
2016-07-31T07:54:03.775Z,24.45
2016-07-31T07:55:03.801Z,24.42
2016-07-31T07:56:03.829Z,24.43
2016-07-31T07:57:03.854Z,24.37
2016-07-31T07:58:03.883Z,24.46
2016-07-31T07:59:03.909Z,24.35
2016-07-31T08:00:03.938Z,24.43
2016-07-31T08:01:03.965Z,24.31
2016-07-31T08:02:03.992Z,24.39
2016-07-31T08:03:04.014Z,24.32
2016-07-31T08:04:04.045Z,24.35
2016-07-31T08:05:04.071Z,24.37
2016-07-31T08:06:04.097Z,24.47
2016-07-31T08:07:04.126Z,24.47
2016-07-31T08:08:04.154Z,24.24
2016-07-31T08:09:04.179Z,24.32
2016-07-31T08:10:04.206Z,24.34
2016-07-31T08:11:04.236Z,24.28
2016-07-31T08:12:04.258Z,24.37
2016-07-31T08:13:04.288Z,24.27
2016-07-31T08:14:04.315Z,24.25
2016-07-31T08:15:04.342Z,24.34
2016-07-31T08:16:04.382Z,24.28
2016-07-31T08:17:04.398Z,24.18
2016-07-31T08:18:04.435Z,24.39
2016-07-31T08:19:04.448Z,24.34
2016-07-31T08:20:04.482Z,24.31
2016-07-31T08:21:04.499Z,24.32
2016-07-31T08:22:04.529Z,24.25
2016-07-31T08:23:04.557Z,24.24
2016-07-31T08:24:04.593Z,24.27
2016-07-31T08:25:04.610Z,24.31
2016-07-31T08:26:05.340Z,24.45
2016-07-31T08:27:04.670Z,24.53
2016-07-31T08:28:04.688Z,24.55
2016-07-31T08:29:04.717Z,24.64
2016-07-31T08:30:04.752Z,24.61
2016-07-31T08:31:04.772Z,24.71
2016-07-31T08:32:04.798Z,24.6
2016-07-31T08:33:04.822Z,24.6
2016-07-31T08:34:04.854Z,24.65
2016-07-31T08:35:04.878Z,24.57
2016-07-31T08:36:04.904Z,24.58
2016-07-31T08:37:04.932Z,24.6
2016-07-31T08:38:05.659Z,24.61
2016-07-31T08:39:04.986Z,24.53
2016-07-31T08:40:05.016Z,24.58
2016-07-31T08:41:06.145Z,24.55
2016-07-31T08:42:05.075Z,24.73
2016-07-31T08:43:05.096Z,24.73
2016-07-31T08:44:05.125Z,24.67
2016-07-31T08:45:05.152Z,24.9
2016-07-31T08:46:05.178Z,24.9
2016-07-31T08:47:05.203Z,25.08
2016-07-31T08:48:05.232Z,25.23
2016-07-31T08:49:05.258Z,25.39
2016-07-31T08:50:05.285Z,25.33
2016-07-31T08:51:05.314Z,25.35
2016-07-31T08:52:05.341Z,25.1
2016-07-31T08:53:05.368Z,25.06
2016-07-31T08:54:05.402Z,25.03
2016-07-31T08:55:06.136Z,24.98
2016-07-31T08:56:05.458Z,24.96
2016-07-31T08:57:05.478Z,24.98
2016-07-31T08:58:05.506Z,24.99
2016-07-31T08:59:05.533Z,24.91
2016-07-31T09:00:05.559Z,24.84
2016-07-31T09:01:05.589Z,24.88
2016-07-31T09:02:06.321Z,24.83
2016-07-31T09:03:05.644Z,24.88
2016-07-31T09:04:05.676Z,24.8
2016-07-31T09:05:05.698Z,24.83
2016-07-31T09:06:05.728Z,24.88
2016-07-31T09:07:05.752Z,24.91
2016-07-31T09:08:05.781Z,24.78
2016-07-31T09:09:05.816Z,24.87
2016-07-31T09:10:05.838Z,24.8
2016-07-31T09:11:05.862Z,24.73
2016-07-31T09:12:06.594Z,24.73
2016-07-31T09:13:05.919Z,24.76
2016-07-31T09:14:05.947Z,24.65
2016-07-31T09:15:05.977Z,24.73
2016-07-31T09:16:06.012Z,24.73
2016-07-31T09:17:06.034Z,24.69
2016-07-31T09:18:06.061Z,24.71
2016-07-31T09:19:06.085Z,24.65
2016-07-31T09:20:06.122Z,24.68
2016-07-31T09:21:06.140Z,24.65
2016-07-31T09:22:06.866Z,24.6
2016-07-31T09:23:06.198Z,24.65
2016-07-31T09:24:06.235Z,24.49
2016-07-31T09:25:06.253Z,24.49
2016-07-31T09:26:06.292Z,24.49
2016-07-31T09:27:06.306Z,24.47
2016-07-31T09:28:06.336Z,24.52
2016-07-31T09:29:06.361Z,24.49
2016-07-31T09:30:06.392Z,24.43
2016-07-31T09:31:06.416Z,24.47
2016-07-31T09:32:06.444Z,24.45
2016-07-31T09:33:06.473Z,24.4
2016-07-31T09:34:06.502Z,24.42
2016-07-31T09:35:06.533Z,24.35
2016-07-31T09:36:06.557Z,24.35
2016-07-31T09:37:06.579Z,24.37
2016-07-31T09:38:07.308Z,24.39
2016-07-31T09:39:06.636Z,24.42
2016-07-31T09:40:06.662Z,24.4
2016-07-31T09:41:06.689Z,24.43
2016-07-31T09:42:06.729Z,24.4
2016-07-31T09:43:06.750Z,24.37
2016-07-31T09:44:06.776Z,24.37
2016-07-31T09:45:06.807Z,24.39
2016-07-31T09:46:06.828Z,24.45
2016-07-31T09:47:06.865Z,24.39
2016-07-31T09:48:06.886Z,24.4
2016-07-31T09:49:06.912Z,24.43
2016-07-31T09:50:06.937Z,24.4
2016-07-31T09:51:06.963Z,24.39
2016-07-31T09:52:06.987Z,24.39
2016-07-31T09:53:07.016Z,24.34
2016-07-31T09:54:07.042Z,24.43
2016-07-31T09:55:07.070Z,24.4
2016-07-31T09:56:07.101Z,24.4
2016-07-31T09:57:07.127Z,24.47
2016-07-31T09:58:07.152Z,24.46
2016-07-31T09:59:07.181Z,24.49
2016-07-31T10:01:07.245Z,24.47
2016-07-31T10:02:07.266Z,24.55
2016-07-31T10:03:07.289Z,24.53
2016-07-31T10:04:07.317Z,24.49
2016-07-31T10:05:07.344Z,24.52
2016-07-31T10:06:07.373Z,24.49
2016-07-31T10:07:08.096Z,24.43
2016-07-31T10:08:07.423Z,24.47
2016-07-31T10:09:07.452Z,24.49
2016-07-31T10:10:07.480Z,24.53
2016-07-31T10:11:07.504Z,24.62
2016-07-31T10:12:07.533Z,24.67
2016-07-31T10:13:07.562Z,24.77
2016-07-31T10:14:07.586Z,24.78
2016-07-31T10:15:07.619Z,24.93
2016-07-31T10:16:07.642Z,25.03
2016-07-31T10:17:07.668Z,25.03
2016-07-31T10:18:07.698Z,24.93
2016-07-31T10:19:07.722Z,24.96
2016-07-31T10:20:07.753Z,24.88
2016-07-31T10:21:07.780Z,24.88
2016-07-31T10:22:07.815Z,24.85
2016-07-31T10:23:07.834Z,24.87
2016-07-31T10:24:07.878Z,25
2016-07-31T10:25:07.887Z,25.02
2016-07-31T10:26:07.918Z,24.95
2016-07-31T10:27:07.947Z,24.93
2016-07-31T10:28:07.981Z,24.88
2016-07-31T10:29:08.011Z,24.84
2016-07-31T10:30:08.030Z,24.91
2016-07-31T10:31:08.053Z,24.87
2016-07-31T10:32:08.080Z,24.91
2016-07-31T10:33:08.110Z,25.03
2016-07-31T10:34:08.138Z,24.95
2016-07-31T10:35:08.172Z,24.99
2016-07-31T10:36:08.199Z,24.98
2016-07-31T10:37:08.221Z,24.96
2016-07-31T10:38:08.247Z,25.02
2016-07-31T10:39:08.278Z,25.03
2016-07-31T10:40:08.305Z,25.05
2016-07-31T10:41:08.330Z,25.14
2016-07-31T10:42:08.362Z,25.25
2016-07-31T10:43:08.388Z,25.2
2016-07-31T10:44:08.416Z,25.23
2016-07-31T10:45:08.443Z,25.32
2016-07-31T10:46:08.472Z,25.4
2016-07-31T10:47:08.499Z,25.39
2016-07-31T10:48:08.527Z,25.38
2016-07-31T10:49:08.552Z,25.4
2016-07-31T10:50:08.588Z,25.4
2016-07-31T10:51:08.608Z,25.42
2016-07-31T10:52:08.638Z,25.36
2016-07-31T10:53:08.663Z,25.39
2016-07-31T10:54:08.693Z,25.45
2016-07-31T10:55:08.720Z,25.43
2016-07-31T10:56:08.749Z,25.45
2016-07-31T10:57:08.779Z,25.57
2016-07-31T10:58:08.803Z,25.62
2016-07-31T10:59:08.833Z,25.61
2016-07-31T11:00:08.861Z,25.67
2016-07-31T11:01:08.893Z,25.64
2016-07-31T11:02:08.918Z,25.55
2016-07-31T11:03:08.943Z,25.57
2016-07-31T11:04:08.971Z,25.62
2016-07-31T11:05:09.000Z,25.55
2016-07-31T11:06:09.029Z,25.62
2016-07-31T11:07:09.055Z,25.57
2016-07-31T11:08:09.091Z,25.62
2016-07-31T11:09:09.114Z,25.62
2016-07-31T11:10:09.154Z,25.64
2016-07-31T11:11:09.169Z,25.58
2016-07-31T11:12:09.205Z,25.54
2016-07-31T11:13:09.229Z,25.55
2016-07-31T11:14:09.253Z,25.54
2016-07-31T11:15:09.281Z,25.64
2016-07-31T11:16:09.310Z,25.6
2016-07-31T11:17:09.340Z,25.62
2016-07-31T11:18:09.364Z,25.58
2016-07-31T11:19:09.391Z,25.62
2016-07-31T11:20:09.421Z,25.54
2016-07-31T11:21:09.455Z,25.58
2016-07-31T11:22:09.481Z,25.64
2016-07-31T11:23:09.505Z,25.61
2016-07-31T11:24:09.533Z,25.73
2016-07-31T11:25:09.559Z,25.79
2016-07-31T11:26:09.595Z,25.83
2016-07-31T11:27:09.618Z,25.8
2016-07-31T11:28:09.649Z,25.8
2016-07-31T11:29:09.672Z,25.82
2016-07-31T11:30:09.707Z,25.76
2016-07-31T11:31:09.727Z,25.77
2016-07-31T11:32:10.471Z,25.6
2016-07-31T11:33:09.786Z,25.6
2016-07-31T11:34:09.811Z,25.62
2016-07-31T11:35:09.841Z,25.6
2016-07-31T11:36:09.870Z,25.61
2016-07-31T11:37:09.896Z,25.64
2016-07-31T11:38:09.925Z,25.69
2016-07-31T11:39:09.954Z,25.69
2016-07-31T11:40:09.981Z,25.75
2016-07-31T11:41:10.012Z,25.73
2016-07-31T11:42:10.042Z,25.7
2016-07-31T11:43:10.067Z,25.76
2016-07-31T11:44:10.095Z,25.79
2016-07-31T11:45:10.127Z,25.75
2016-07-31T11:46:10.148Z,25.79
2016-07-31T11:47:10.185Z,25.83
2016-07-31T11:48:10.210Z,25.73
2016-07-31T11:49:10.234Z,25.83
2016-07-31T11:50:10.263Z,25.76
2016-07-31T11:51:10.989Z,25.87
2016-07-31T11:52:10.322Z,25.85
2016-07-31T11:53:10.347Z,25.83
2016-07-31T11:54:10.378Z,25.9
2016-07-31T11:55:10.405Z,25.77
2016-07-31T11:56:11.138Z,25.82
2016-07-31T11:57:10.459Z,25.75
2016-07-31T11:58:10.488Z,25.87
2016-07-31T11:59:10.518Z,25.94
2016-07-31T12:00:10.545Z,25.88
2016-07-31T12:01:10.569Z,25.92
2016-07-31T12:02:10.610Z,26.07
2016-07-31T12:03:10.629Z,25.92
2016-07-31T12:04:10.658Z,25.92
2016-07-31T12:05:10.686Z,25.8
2016-07-31T12:06:10.718Z,25.8
2016-07-31T12:07:10.739Z,25.88
2016-07-31T12:08:10.777Z,25.85
2016-07-31T12:09:10.799Z,25.83
2016-07-31T12:10:10.824Z,25.73
2016-07-31T12:11:10.859Z,25.8
2016-07-31T12:12:10.882Z,25.83
2016-07-31T12:13:10.911Z,25.85
2016-07-31T12:14:10.951Z,25.88
2016-07-31T12:15:10.974Z,25.94
2016-07-31T12:16:11.001Z,25.92
2016-07-31T12:17:11.020Z,25.83
2016-07-31T12:18:11.055Z,25.91
2016-07-31T12:19:11.076Z,25.9
2016-07-31T12:20:11.112Z,25.88
2016-07-31T12:21:11.136Z,25.92
2016-07-31T12:22:11.165Z,25.92
2016-07-31T12:23:11.190Z,25.98
2016-07-31T12:24:11.225Z,25.95
2016-07-31T12:25:11.258Z,25.9
2016-07-31T12:26:11.280Z,25.91
2016-07-31T12:27:11.305Z,25.95
2016-07-31T12:28:11.342Z,25.85
2016-07-31T12:29:11.359Z,25.76
2016-07-31T12:30:11.392Z,25.76
2016-07-31T12:31:11.416Z,25.75
2016-07-31T12:32:11.443Z,25.7
2016-07-31T12:33:11.472Z,25.65
2016-07-31T12:34:11.501Z,25.62
2016-07-31T12:35:11.527Z,25.54
2016-07-31T12:36:11.559Z,25.52
2016-07-31T12:37:11.587Z,25.5
2016-07-31T12:38:11.614Z,25.52
2016-07-31T12:39:11.642Z,25.5
2016-07-31T12:40:11.671Z,25.52
2016-07-31T12:41:11.701Z,25.43
2016-07-31T12:42:11.727Z,25.42
2016-07-31T12:43:11.754Z,25.4
2016-07-31T12:44:11.783Z,25.32
2016-07-31T12:45:11.811Z,25.39
2016-07-31T12:46:11.840Z,25.3
2016-07-31T12:47:11.866Z,25.33
2016-07-31T12:48:11.895Z,25.33
2016-07-31T12:49:11.924Z,25.21
2016-07-31T12:50:11.952Z,25.21
2016-07-31T12:51:11.991Z,25.25
2016-07-31T12:52:12.711Z,25.14
2016-07-31T12:53:12.036Z,25.13
2016-07-31T12:54:12.073Z,25.03
2016-07-31T12:55:12.097Z,25.03
2016-07-31T12:56:12.122Z,24.99
2016-07-31T12:57:12.168Z,24.9
2016-07-31T12:58:12.178Z,24.87
2016-07-31T12:59:12.207Z,24.77
2016-07-31T13:00:12.234Z,24.8
2016-07-31T13:01:12.263Z,24.81
2016-07-31T13:02:12.289Z,24.77
2016-07-31T13:03:12.318Z,24.76
2016-07-31T13:04:12.349Z,24.68